createdAt,value
2016-12-06T00:00:50.401Z,978.41
2016-12-06T00:01:50.397Z,978.4
2016-12-06T00:02:50.393Z,978.4
2016-12-06T00:03:50.385Z,978.42
2016-12-06T00:04:50.385Z,978.44
2016-12-06T00:05:53.409Z,978.46
2016-12-06T00:06:50.373Z,978.44
2016-12-06T00:07:50.373Z,978.49
2016-12-06T00:08:50.365Z,978.47
2016-12-06T00:09:50.365Z,978.49
2016-12-06T00:10:50.361Z,978.5
2016-12-06T00:11:50.353Z,978.5
2016-12-06T00:12:50.353Z,978.51
2016-12-06T00:13:50.349Z,978.54
2016-12-06T00:14:50.341Z,978.51
2016-12-06T00:15:50.341Z,978.51
2016-12-06T00:16:50.337Z,978.49
2016-12-06T00:17:50.329Z,978.49
2016-12-06T00:18:50.329Z,978.49
2016-12-06T00:19:50.329Z,978.47
2016-12-06T00:20:50.321Z,978.46
2016-12-06T00:21:50.317Z,978.49
2016-12-06T00:22:50.317Z,978.49
2016-12-06T00:23:50.310Z,978.47
2016-12-06T00:24:50.305Z,978.48
2016-12-06T00:25:50.305Z,978.43
2016-12-06T00:26:50.301Z,978.45
2016-12-06T00:27:50.308Z,978.45
2016-12-06T00:28:50.293Z,978.42
2016-12-06T00:29:50.289Z,978.39
2016-12-06T00:30:50.285Z,978.44
2016-12-06T00:31:50.277Z,978.45
2016-12-06T00:32:50.277Z,978.42
2016-12-06T00:33:50.273Z,978.41
2016-12-06T00:34:50.269Z,978.42
2016-12-06T00:35:50.265Z,978.45
2016-12-06T00:36:50.262Z,978.47
2016-12-06T00:37:50.254Z,978.46
2016-12-06T00:38:50.254Z,978.53
2016-12-06T00:39:50.249Z,978.5
2016-12-06T00:40:50.246Z,978.5
2016-12-06T00:41:50.247Z,978.48
2016-12-06T00:42:50.237Z,978.45
2016-12-06T00:43:50.234Z,978.45
2016-12-06T00:44:50.230Z,978.45
2016-12-06T00:45:50.229Z,978.43
2016-12-06T00:46:50.218Z,978.44
2016-12-06T00:47:50.218Z,978.44
2016-12-06T00:48:50.214Z,978.42
2016-12-06T00:49:50.210Z,978.44
2016-12-06T00:50:50.202Z,978.45
2016-12-06T00:51:50.202Z,978.44
2016-12-06T00:52:50.194Z,978.45
2016-12-06T00:53:50.190Z,978.48
2016-12-06T00:54:50.190Z,978.51
2016-12-06T00:55:50.187Z,978.49
2016-12-06T00:56:50.179Z,978.52
2016-12-06T00:57:50.178Z,978.52
2016-12-06T00:58:50.174Z,978.55
2016-12-06T00:59:50.167Z,978.56
2016-12-06T01:00:50.166Z,978.58
2016-12-06T01:01:50.159Z,978.6
2016-12-06T01:02:50.155Z,978.58
2016-12-06T01:03:50.155Z,978.58
2016-12-06T01:04:50.151Z,978.6
2016-12-06T01:05:50.147Z,978.63
2016-12-06T01:06:50.143Z,978.62
2016-12-06T01:07:50.139Z,978.6
2016-12-06T01:08:50.136Z,978.64
2016-12-06T01:09:50.131Z,978.63
2016-12-06T01:10:50.127Z,978.61
2016-12-06T01:11:50.119Z,978.62
2016-12-06T01:12:50.115Z,978.63
2016-12-06T01:13:50.115Z,978.61
2016-12-06T01:14:50.111Z,978.61
2016-12-06T01:15:50.103Z,978.61
2016-12-06T01:16:50.103Z,978.63
2016-12-06T01:17:50.095Z,978.64
2016-12-06T01:18:50.091Z,978.62
2016-12-06T01:19:50.090Z,978.62
2016-12-06T01:20:50.087Z,978.65
2016-12-06T01:21:50.083Z,978.61
2016-12-06T01:22:50.075Z,978.67
2016-12-06T01:23:50.079Z,978.6
2016-12-06T01:24:50.071Z,978.67
2016-12-06T01:25:50.067Z,978.67
2016-12-06T01:26:50.063Z,978.64
2016-12-06T01:27:50.063Z,978.64
2016-12-06T01:28:50.055Z,978.65
2016-12-06T01:29:50.051Z,978.65
2016-12-06T01:30:50.051Z,978.67
2016-12-06T01:31:50.043Z,978.66
2016-12-06T01:32:50.043Z,978.66
2016-12-06T01:33:50.039Z,978.65
2016-12-06T01:34:50.035Z,978.66
2016-12-06T01:35:50.027Z,978.61
2016-12-06T01:36:50.027Z,978.6
2016-12-06T01:37:50.019Z,978.65
2016-12-06T01:38:50.018Z,978.64
2016-12-06T01:39:50.015Z,978.65
2016-12-06T01:40:50.012Z,978.64
2016-12-06T01:41:50.003Z,978.71
2016-12-06T01:42:49.999Z,978.64
2016-12-06T01:43:50.000Z,978.68
2016-12-06T01:44:49.995Z,978.68
2016-12-06T01:45:49.988Z,978.67
2016-12-06T01:46:49.987Z,978.65
2016-12-06T01:47:49.984Z,978.68
2016-12-06T01:48:49.976Z,978.69
2016-12-06T01:49:49.972Z,978.73
2016-12-06T01:50:49.972Z,978.71
2016-12-06T01:51:49.968Z,978.69
2016-12-06T01:52:49.960Z,978.71
2016-12-06T01:53:49.960Z,978.71
2016-12-06T01:54:49.956Z,978.71
2016-12-06T01:55:49.952Z,978.72
2016-12-06T01:56:49.944Z,978.7
2016-12-06T01:57:49.944Z,978.69
2016-12-06T01:58:49.940Z,978.71
2016-12-06T01:59:49.936Z,978.75
2016-12-06T02:00:49.929Z,978.69
2016-12-06T02:01:49.928Z,978.72
2016-12-06T02:02:49.924Z,978.74
2016-12-06T02:03:49.916Z,978.75
2016-12-06T02:04:49.912Z,978.74
2016-12-06T02:05:49.913Z,978.71
2016-12-06T02:06:49.908Z,978.72
2016-12-06T02:07:49.904Z,978.74
2016-12-06T02:08:49.896Z,978.7
2016-12-06T02:09:49.896Z,978.76
2016-12-06T02:10:49.889Z,978.74
2016-12-06T02:11:49.889Z,978.77
2016-12-06T02:12:49.881Z,978.75
2016-12-06T02:13:49.877Z,978.72
2016-12-06T02:14:49.877Z,978.72
2016-12-06T02:15:49.873Z,978.73
2016-12-06T02:16:49.868Z,978.72
2016-12-06T02:17:49.861Z,978.76
2016-12-06T02:18:49.861Z,978.73
2016-12-06T02:19:49.857Z,978.81
2016-12-06T02:20:49.850Z,978.8
2016-12-06T02:21:49.842Z,978.81
2016-12-06T02:22:49.845Z,978.81
2016-12-06T02:23:49.842Z,978.82
2016-12-06T02:24:49.830Z,978.79
2016-12-06T02:25:49.826Z,978.77
2016-12-06T02:26:49.826Z,978.77
2016-12-06T02:27:49.826Z,978.73
2016-12-06T02:28:49.818Z,978.73
2016-12-06T02:29:49.810Z,978.73
2016-12-06T02:30:49.810Z,978.76
2016-12-06T02:31:49.810Z,978.75
2016-12-06T02:32:49.802Z,978.72
2016-12-06T02:33:49.794Z,978.77
2016-12-06T02:34:49.790Z,978.76
2016-12-06T02:35:49.790Z,978.81
2016-12-06T02:36:49.786Z,978.76
2016-12-06T02:37:49.782Z,978.78
2016-12-06T02:38:49.774Z,978.75
2016-12-06T02:39:49.777Z,978.79
2016-12-06T02:40:49.770Z,978.82
2016-12-06T02:41:49.766Z,978.83
2016-12-06T02:42:49.762Z,978.8
2016-12-06T02:43:49.758Z,978.84
2016-12-06T02:44:49.754Z,978.85
2016-12-06T02:45:49.751Z,978.84
2016-12-06T02:46:49.747Z,978.87
2016-12-06T02:47:49.739Z,978.89
2016-12-06T02:48:49.738Z,978.89
2016-12-06T02:49:49.735Z,978.9
2016-12-06T02:50:49.730Z,978.85
2016-12-06T02:51:49.727Z,978.83
2016-12-06T02:52:49.719Z,978.85
2016-12-06T02:53:49.719Z,978.85
2016-12-06T02:54:49.715Z,978.86
2016-12-06T02:55:49.711Z,978.85
2016-12-06T02:56:49.703Z,978.86
2016-12-06T02:57:49.703Z,978.87
2016-12-06T02:58:49.699Z,978.85
2016-12-06T02:59:49.695Z,978.88
2016-12-06T03:00:49.690Z,978.84
2016-12-06T03:01:49.684Z,978.88
2016-12-06T03:02:49.683Z,978.87
2016-12-06T03:03:49.679Z,978.88
2016-12-06T03:04:49.675Z,978.86
2016-12-06T03:05:49.667Z,978.86
2016-12-06T03:06:49.664Z,978.86
2016-12-06T03:07:49.663Z,978.85
2016-12-06T03:08:49.659Z,978.88
2016-12-06T03:09:49.656Z,978.9
2016-12-06T03:10:49.648Z,978.9
2016-12-06T03:11:49.644Z,978.89
2016-12-06T03:12:49.644Z,978.9
2016-12-06T03:13:49.640Z,978.93
2016-12-06T03:14:49.632Z,978.92
2016-12-06T03:15:49.628Z,978.96
2016-12-06T03:16:49.624Z,978.92
2016-12-06T03:17:49.624Z,978.91
2016-12-06T03:18:49.620Z,978.91
2016-12-06T03:19:49.616Z,978.97
2016-12-06T03:20:49.608Z,978.94
2016-12-06T03:21:49.608Z,978.97
2016-12-06T03:22:49.604Z,978.96
2016-12-06T03:23:49.600Z,978.95
2016-12-06T03:24:49.592Z,978.92
2016-12-06T03:25:49.589Z,978.93
2016-12-06T03:26:49.589Z,978.93
2016-12-06T03:27:49.585Z,978.92
2016-12-06T03:28:49.581Z,978.92
2016-12-06T03:29:49.573Z,978.93
2016-12-06T03:30:49.569Z,978.95
2016-12-06T03:31:49.569Z,978.93
2016-12-06T03:32:49.565Z,978.96
2016-12-06T03:33:49.561Z,978.96
2016-12-06T03:34:49.553Z,978.97
2016-12-06T03:35:49.549Z,979
2016-12-06T03:36:49.549Z,979.02
2016-12-06T03:37:49.545Z,978.99
2016-12-06T03:38:49.537Z,978.98
2016-12-06T03:39:49.534Z,978.94
2016-12-06T03:40:49.529Z,978.91
2016-12-06T03:41:49.525Z,978.92
2016-12-06T03:42:49.525Z,978.9
2016-12-06T03:43:49.521Z,978.92
2016-12-06T03:44:49.513Z,978.93
2016-12-06T03:45:49.506Z,978.95
2016-12-06T03:46:49.501Z,978.92
2016-12-06T03:47:49.506Z,978.91
2016-12-06T03:48:49.498Z,978.93
2016-12-06T03:49:49.490Z,978.93
2016-12-06T03:50:49.486Z,978.92
2016-12-06T03:51:49.481Z,978.91
2016-12-06T03:52:49.481Z,978.93
2016-12-06T03:53:49.478Z,978.96
2016-12-06T03:54:49.474Z,978.95
2016-12-06T03:55:49.466Z,978.91
2016-12-06T03:56:49.465Z,978.91
2016-12-06T03:57:49.462Z,978.91
2016-12-06T03:58:49.457Z,978.94
2016-12-06T03:59:49.453Z,978.89
2016-12-06T04:00:49.445Z,978.88
2016-12-06T04:01:49.442Z,978.91
2016-12-06T04:02:49.447Z,978.87
2016-12-06T04:03:49.438Z,978.9
2016-12-06T04:04:49.430Z,978.9
2016-12-06T04:05:49.426Z,978.88
2016-12-06T04:06:49.422Z,978.89
2016-12-06T04:07:49.422Z,978.88
2016-12-06T04:08:49.418Z,978.88
2016-12-06T04:09:49.415Z,978.87
2016-12-06T04:10:49.406Z,978.88
2016-12-06T04:11:49.402Z,978.85
2016-12-06T04:12:49.402Z,978.87
2016-12-06T04:13:49.398Z,978.89
2016-12-06T04:14:49.394Z,978.9
2016-12-06T04:15:49.386Z,978.92
2016-12-06T04:16:49.382Z,978.92
2016-12-06T04:17:49.382Z,978.92
2016-12-06T04:18:49.378Z,978.9
2016-12-06T04:19:49.374Z,978.91
2016-12-06T04:20:49.367Z,978.95
2016-12-06T04:21:49.362Z,978.94
2016-12-06T04:22:49.362Z,978.91
2016-12-06T04:23:49.359Z,978.95
2016-12-06T04:24:49.356Z,978.92
2016-12-06T04:25:49.346Z,978.92
2016-12-06T04:26:49.343Z,978.92
2016-12-06T04:27:49.342Z,978.95
2016-12-06T04:28:49.339Z,978.93
2016-12-06T04:29:49.334Z,978.93
2016-12-06T04:30:49.332Z,978.99
2016-12-06T04:31:49.323Z,978.98
2016-12-06T04:32:49.323Z,978.96
2016-12-06T04:33:49.319Z,978.96
2016-12-06T04:34:49.315Z,979
2016-12-06T04:35:49.307Z,978.96
2016-12-06T04:36:49.303Z,978.99
2016-12-06T04:37:49.299Z,979
2016-12-06T04:38:49.298Z,979.01
2016-12-06T04:39:49.295Z,978.98
2016-12-06T04:40:49.291Z,978.99
2016-12-06T04:41:49.283Z,979.02
2016-12-06T04:42:49.279Z,979.02
2016-12-06T04:43:49.271Z,979.05
2016-12-06T04:44:49.275Z,979.09
2016-12-06T04:45:49.271Z,979.05
2016-12-06T04:46:49.263Z,979.1
2016-12-06T04:47:49.255Z,979.09
2016-12-06T04:48:49.251Z,979.07
2016-12-06T04:49:49.255Z,979.08
2016-12-06T04:50:49.247Z,979.1
2016-12-06T04:51:49.243Z,979.06
2016-12-06T04:52:49.240Z,979.04
2016-12-06T04:53:49.232Z,979.08
2016-12-06T04:54:49.231Z,979.07
2016-12-06T04:55:49.227Z,979.08
2016-12-06T04:56:49.219Z,979.07
2016-12-06T04:57:49.219Z,979.12
2016-12-06T04:58:49.212Z,979.11
2016-12-06T04:59:49.211Z,979.1
2016-12-06T05:00:49.207Z,979.11
2016-12-06T05:01:49.204Z,979.1
2016-12-06T05:02:49.195Z,979.09
2016-12-06T05:03:49.193Z,979.11
2016-12-06T05:04:49.192Z,979.1
2016-12-06T05:05:49.187Z,979.11
2016-12-06T05:06:49.184Z,979.14
2016-12-06T05:07:49.180Z,979.14
2016-12-06T05:08:49.172Z,979.12
2016-12-06T05:09:49.172Z,979.12
2016-12-06T05:10:49.168Z,979.09
2016-12-06T05:11:49.164Z,979.11
2016-12-06T05:12:49.156Z,979.12
2016-12-06T05:13:49.156Z,979.14
2016-12-06T05:14:49.148Z,979.18
2016-12-06T05:15:49.148Z,979.14
2016-12-06T05:16:49.148Z,979.14
2016-12-06T05:17:49.140Z,979.14
2016-12-06T05:18:49.136Z,979.13
2016-12-06T05:19:49.131Z,979.13
2016-12-06T05:20:49.128Z,979.13
2016-12-06T05:21:49.124Z,979.14
2016-12-06T05:22:49.120Z,979.14
2016-12-06T05:23:49.117Z,979.19
2016-12-06T05:24:49.109Z,979.17
2016-12-06T05:25:49.108Z,979.22
2016-12-06T05:26:49.104Z,979.2
2016-12-06T05:27:49.101Z,979.22
2016-12-06T05:28:49.093Z,979.2
2016-12-06T05:29:49.093Z,979.19
2016-12-06T05:30:49.085Z,979.19
2016-12-06T05:31:49.077Z,979.22
2016-12-06T05:32:49.082Z,979.22
2016-12-06T05:33:49.077Z,979.24
2016-12-06T05:34:49.069Z,979.26
2016-12-06T05:35:49.061Z,979.24
2016-12-06T05:36:49.057Z,979.28
2016-12-06T05:37:49.057Z,979.3
2016-12-06T05:38:49.053Z,979.28
2016-12-06T05:39:49.058Z,979.32
2016-12-06T05:40:49.045Z,979.29
2016-12-06T05:41:49.037Z,979.3
2016-12-06T05:42:49.033Z,979.32
2016-12-06T05:43:49.033Z,979.34
2016-12-06T05:44:49.029Z,979.36
2016-12-06T05:45:49.021Z,979.4
2016-12-06T05:46:49.017Z,979.39
2016-12-06T05:47:49.013Z,979.34
2016-12-06T05:48:49.013Z,979.37
2016-12-06T05:49:49.010Z,979.4
2016-12-06T05:50:49.006Z,979.31
2016-12-06T05:51:48.998Z,979.36
2016-12-06T05:52:48.994Z,979.36
2016-12-06T05:53:48.989Z,979.32
2016-12-06T05:54:48.989Z,979.36
2016-12-06T05:55:48.986Z,979.33
2016-12-06T05:56:48.982Z,979.37
2016-12-06T05:57:48.974Z,979.36
2016-12-06T05:58:48.970Z,979.41
2016-12-06T05:59:48.970Z,979.4
2016-12-06T06:00:48.965Z,979.37
2016-12-06T06:01:48.962Z,979.39
2016-12-06T06:02:48.954Z,979.35
2016-12-06T06:03:48.961Z,979.4
2016-12-06T06:04:48.950Z,979.43
2016-12-06T06:05:48.946Z,979.38
2016-12-06T06:06:48.942Z,979.42
2016-12-06T06:07:48.934Z,979.41
2016-12-06T06:08:48.933Z,979.43
2016-12-06T06:09:48.930Z,979.41
2016-12-06T06:10:48.926Z,979.41
2016-12-06T06:11:48.919Z,979.4
2016-12-06T06:12:48.914Z,979.46
2016-12-06T06:13:48.914Z,979.44
2016-12-06T06:14:48.910Z,979.43
2016-12-06T06:15:48.906Z,979.44
2016-12-06T06:16:48.902Z,979.44
2016-12-06T06:17:48.898Z,979.46
2016-12-06T06:18:48.895Z,979.41
2016-12-06T06:19:48.891Z,979.44
2016-12-06T06:20:48.887Z,979.46
2016-12-06T06:21:48.883Z,979.53
2016-12-06T06:22:48.879Z,979.51
2016-12-06T06:23:48.876Z,979.51
2016-12-06T06:24:48.871Z,979.52
2016-12-06T06:25:48.863Z,979.56
2016-12-06T06:26:48.863Z,979.53
2016-12-06T06:27:48.858Z,979.55
2016-12-06T06:28:48.855Z,979.53
2016-12-06T06:29:48.846Z,979.52
2016-12-06T06:30:48.843Z,979.51
2016-12-06T06:31:48.839Z,979.5
2016-12-06T06:32:48.834Z,979.51
2016-12-06T06:33:48.831Z,979.49
2016-12-06T06:34:48.827Z,979.48
2016-12-06T06:35:48.823Z,979.49
2016-12-06T06:36:48.818Z,979.52
2016-12-06T06:37:48.814Z,979.58
2016-12-06T06:38:48.811Z,979.58
2016-12-06T06:39:48.807Z,979.58
2016-12-06T06:40:48.803Z,979.57
2016-12-06T06:41:48.799Z,979.6
2016-12-06T06:42:48.795Z,979.6
2016-12-06T06:43:48.791Z,979.61
2016-12-06T06:44:48.787Z,979.61
2016-12-06T06:45:48.783Z,979.61
2016-12-06T06:46:48.779Z,979.63
2016-12-06T06:47:48.775Z,979.66
2016-12-06T06:48:48.773Z,979.69
2016-12-06T06:49:48.767Z,979.71
2016-12-06T06:50:48.763Z,979.71
2016-12-06T06:51:48.755Z,979.65
2016-12-06T06:52:48.755Z,979.66
2016-12-06T06:53:48.751Z,979.68
2016-12-06T06:54:48.748Z,979.64
2016-12-06T06:55:48.739Z,979.63
2016-12-06T06:56:48.735Z,979.63
2016-12-06T06:57:48.731Z,979.64
2016-12-06T06:58:48.727Z,979.64
2016-12-06T06:59:48.723Z,979.66
2016-12-06T07:00:48.719Z,979.67
2016-12-06T07:01:48.715Z,979.7
2016-12-06T07:02:48.717Z,979.71
2016-12-06T07:03:48.708Z,979.7
2016-12-06T07:04:48.703Z,979.69
2016-12-06T07:05:48.699Z,979.7
2016-12-06T07:06:48.695Z,979.73
2016-12-06T07:07:48.691Z,979.72
2016-12-06T07:08:48.688Z,979.79
2016-12-06T07:09:48.683Z,979.75
2016-12-06T07:10:48.679Z,979.79
2016-12-06T07:11:48.675Z,979.79
2016-12-06T07:12:48.676Z,979.79
2016-12-06T07:13:48.667Z,979.79
2016-12-06T07:14:48.663Z,979.8
2016-12-06T07:15:48.660Z,979.8
2016-12-06T07:16:48.655Z,979.81
2016-12-06T07:17:48.648Z,979.78
2016-12-06T07:18:48.644Z,979.8
2016-12-06T07:19:48.643Z,979.81
2016-12-06T07:20:48.636Z,979.86
2016-12-06T07:21:48.632Z,979.84
2016-12-06T07:22:48.627Z,979.88
2016-12-06T07:23:48.624Z,979.86
2016-12-06T07:24:48.620Z,979.92
2016-12-06T07:25:48.616Z,979.93
2016-12-06T07:26:48.612Z,979.96
2016-12-06T07:27:48.608Z,979.99
2016-12-06T07:28:48.604Z,980.02
2016-12-06T07:29:48.600Z,980.04
2016-12-06T07:30:48.596Z,980.09
2016-12-06T07:31:48.592Z,980.08
2016-12-06T07:32:48.588Z,980.06
2016-12-06T07:33:48.584Z,980.07
2016-12-06T07:34:48.580Z,980.09
2016-12-06T07:35:48.577Z,980.07
2016-12-06T07:36:48.572Z,980.08
2016-12-06T07:37:48.568Z,980.07
2016-12-06T07:38:48.564Z,980.09
2016-12-06T07:39:48.560Z,980.08
2016-12-06T07:40:48.556Z,980.1
2016-12-06T07:41:48.552Z,980.11
2016-12-06T07:42:48.548Z,980.08
2016-12-06T07:43:48.544Z,980.12
2016-12-06T07:44:48.540Z,980.18
2016-12-06T07:45:48.537Z,980.16
2016-12-06T07:46:48.528Z,980.21
2016-12-06T07:47:48.524Z,980.22
2016-12-06T07:48:48.520Z,980.23
2016-12-06T07:49:48.518Z,980.23
2016-12-06T07:50:48.512Z,980.22
2016-12-06T07:51:48.509Z,980.28
2016-12-06T07:52:48.505Z,980.27
2016-12-06T07:53:48.501Z,980.28
2016-12-06T07:54:48.497Z,980.3
2016-12-06T07:55:48.493Z,980.28
2016-12-06T07:56:48.488Z,980.32
2016-12-06T07:57:48.484Z,980.27
2016-12-06T07:58:48.481Z,980.27
2016-12-06T07:59:48.476Z,980.28
2016-12-06T08:00:48.473Z,980.28
2016-12-06T08:01:48.469Z,980.27
2016-12-06T08:02:48.465Z,980.26
2016-12-06T08:03:48.461Z,980.27
2016-12-06T08:04:48.457Z,980.29
2016-12-06T08:05:48.453Z,980.26
2016-12-06T08:06:48.449Z,980.28
2016-12-06T08:07:48.445Z,980.34
2016-12-06T08:08:48.441Z,980.33
2016-12-06T08:09:48.437Z,980.35
2016-12-06T08:10:48.433Z,980.37
2016-12-06T08:11:48.429Z,980.35
2016-12-06T08:12:48.425Z,980.45
2016-12-06T08:13:48.421Z,980.4
2016-12-06T08:14:48.417Z,980.41
2016-12-06T08:15:48.409Z,980.46
2016-12-06T08:16:48.410Z,980.46
2016-12-06T08:17:48.405Z,980.45
2016-12-06T08:18:48.401Z,980.5
2016-12-06T08:19:48.394Z,980.51
2016-12-06T08:20:48.390Z,980.5
2016-12-06T08:21:48.390Z,980.5
2016-12-06T08:22:48.382Z,980.54
2016-12-06T08:23:48.378Z,980.51
2016-12-06T08:24:48.376Z,980.54
2016-12-06T08:25:48.370Z,980.51
2016-12-06T08:26:48.366Z,980.55
2016-12-06T08:27:48.362Z,980.57
2016-12-06T08:28:48.358Z,980.55
2016-12-06T08:29:48.354Z,980.54
2016-12-06T08:30:48.350Z,980.55
2016-12-06T08:31:48.346Z,980.55
2016-12-06T08:32:48.342Z,980.54
2016-12-06T08:33:48.338Z,980.56
2016-12-06T08:34:48.334Z,980.54
2016-12-06T08:35:48.330Z,980.57
2016-12-06T08:36:48.326Z,980.59
2016-12-06T08:37:48.322Z,980.58
2016-12-06T08:38:48.318Z,980.6
2016-12-06T08:39:48.314Z,980.63
2016-12-06T08:40:48.310Z,980.63
2016-12-06T08:41:48.306Z,980.64
2016-12-06T08:42:48.302Z,980.59
2016-12-06T08:43:48.299Z,980.6
2016-12-06T08:44:48.294Z,980.56
2016-12-06T08:45:48.291Z,980.56
2016-12-06T08:46:48.286Z,980.58
2016-12-06T08:47:48.282Z,980.57
2016-12-06T08:48:48.279Z,980.59
2016-12-06T08:49:48.274Z,980.58
2016-12-06T08:50:48.272Z,980.59
2016-12-06T08:51:48.267Z,980.6
2016-12-06T08:52:48.263Z,980.63
2016-12-06T08:53:48.259Z,980.6
2016-12-06T08:54:48.255Z,980.68
2016-12-06T08:55:48.251Z,980.66
2016-12-06T08:56:48.247Z,980.73
2016-12-06T08:57:48.243Z,980.75
2016-12-06T08:58:48.243Z,980.76
2016-12-06T08:59:48.236Z,980.77
2016-12-06T09:00:48.235Z,980.78
2016-12-06T09:01:48.231Z,980.8
2016-12-06T09:02:48.227Z,980.8
2016-12-06T09:03:48.223Z,980.8
2016-12-06T09:04:48.219Z,980.82
2016-12-06T09:05:48.216Z,980.84
2016-12-06T09:06:48.211Z,980.84
2016-12-06T09:07:48.207Z,980.86
2016-12-06T09:08:48.203Z,980.82
2016-12-06T09:09:48.199Z,980.88
2016-12-06T09:10:48.196Z,980.84
2016-12-06T09:11:48.191Z,980.91
2016-12-06T09:12:48.187Z,980.87
2016-12-06T09:13:48.183Z,980.89
2016-12-06T09:14:48.179Z,980.93
2016-12-06T09:15:48.175Z,980.88
2016-12-06T09:16:48.173Z,980.86
2016-12-06T09:17:48.168Z,980.88
2016-12-06T09:18:48.164Z,980.88
2016-12-06T09:19:48.163Z,980.88
2016-12-06T09:20:48.160Z,980.82
2016-12-06T09:21:48.156Z,980.9
2016-12-06T09:22:48.152Z,980.87
2016-12-06T09:23:48.148Z,980.85
2016-12-06T09:24:48.144Z,980.89
2016-12-06T09:25:48.140Z,980.85
2016-12-06T09:26:48.136Z,980.85
2016-12-06T09:27:48.132Z,980.9
2016-12-06T09:28:48.128Z,980.86
2016-12-06T09:29:48.124Z,980.93
2016-12-06T09:30:48.120Z,980.94
2016-12-06T09:31:48.120Z,980.93
2016-12-06T09:32:48.138Z,980.9
2016-12-06T09:33:48.108Z,980.89
2016-12-06T09:34:48.108Z,980.89
2016-12-06T09:35:48.100Z,980.89
2016-12-06T09:36:48.100Z,980.9
2016-12-06T09:37:48.096Z,980.87
2016-12-06T09:38:48.092Z,980.9
2016-12-06T09:39:48.089Z,980.92
2016-12-06T09:40:48.084Z,980.89
2016-12-06T09:41:48.080Z,980.88
2016-12-06T09:42:48.077Z,980.86
2016-12-06T09:43:48.072Z,980.85
2016-12-06T09:44:48.068Z,980.87
2016-12-06T09:45:48.064Z,980.84
2016-12-06T09:46:48.060Z,980.85
2016-12-06T09:47:48.061Z,980.84
2016-12-06T09:48:48.057Z,980.84
2016-12-06T09:49:48.053Z,980.82
2016-12-06T09:50:48.049Z,980.8
2016-12-06T09:51:48.045Z,980.8
2016-12-06T09:52:48.041Z,980.75
2016-12-06T09:53:48.037Z,980.78
2016-12-06T09:54:48.033Z,980.76
2016-12-06T09:55:48.029Z,980.76
2016-12-06T09:56:48.029Z,980.73
2016-12-06T09:57:48.021Z,980.75
2016-12-06T09:58:48.021Z,980.73
2016-12-06T09:59:48.017Z,980.69
2016-12-06T10:00:48.013Z,980.7
2016-12-06T10:01:48.009Z,980.69
2016-12-06T10:02:48.005Z,980.71
2016-12-06T10:03:48.001Z,980.71
2016-12-06T10:04:48.001Z,980.68
2016-12-06T10:05:47.993Z,980.77
2016-12-06T10:06:47.993Z,980.75
2016-12-06T10:07:47.989Z,980.73
2016-12-06T10:08:47.985Z,980.77
2016-12-06T10:09:47.982Z,980.75
2016-12-06T10:10:47.978Z,980.71
2016-12-06T10:11:47.973Z,980.72
2016-12-06T10:12:47.972Z,980.72
2016-12-06T10:13:47.966Z,980.67
2016-12-06T10:14:47.966Z,980.68
2016-12-06T10:15:47.962Z,980.67
2016-12-06T10:16:47.958Z,980.65
2016-12-06T10:17:47.954Z,980.68
2016-12-06T10:18:47.950Z,980.68
2016-12-06T10:19:47.946Z,980.66
2016-12-06T10:20:47.942Z,980.69
2016-12-06T10:21:47.942Z,980.68
2016-12-06T10:22:47.938Z,980.66
2016-12-06T10:23:47.934Z,980.64
2016-12-06T10:24:47.930Z,980.59
2016-12-06T10:25:47.926Z,980.57
2016-12-06T10:26:47.922Z,980.57
2016-12-06T10:27:47.918Z,980.54
2016-12-06T10:28:47.918Z,980.54
2016-12-06T10:29:47.914Z,980.52
2016-12-06T10:30:47.911Z,980.5
2016-12-06T10:31:47.907Z,980.47
2016-12-06T10:32:47.902Z,980.45
2016-12-06T10:33:47.899Z,980.44
2016-12-06T10:34:47.895Z,980.46
2016-12-06T10:35:47.895Z,980.47
2016-12-06T10:36:47.890Z,980.43
2016-12-06T10:37:47.887Z,980.43
2016-12-06T10:38:47.883Z,980.45
2016-12-06T10:39:47.879Z,980.44
2016-12-06T10:40:47.875Z,980.44
2016-12-06T10:41:47.871Z,980.43
2016-12-06T10:42:47.871Z,980.42
2016-12-06T10:43:47.867Z,980.41
2016-12-06T10:44:47.863Z,980.41
2016-12-06T10:45:47.859Z,980.43
2016-12-06T10:46:47.855Z,980.41
2016-12-06T10:47:47.851Z,980.42
2016-12-06T10:48:47.851Z,980.39
2016-12-06T10:49:47.847Z,980.39
2016-12-06T10:50:47.843Z,980.4
2016-12-06T10:51:47.839Z,980.38
2016-12-06T10:52:47.839Z,980.39
2016-12-06T10:53:47.835Z,980.36
2016-12-06T10:54:47.832Z,980.35
2016-12-06T10:55:47.827Z,980.32
2016-12-06T10:56:47.824Z,980.3
2016-12-06T10:57:47.820Z,980.31
2016-12-06T10:58:47.819Z,980.3
2016-12-06T10:59:47.816Z,980.26
2016-12-06T11:00:47.812Z,980.24
2016-12-06T11:01:47.807Z,980.27
2016-12-06T11:02:47.804Z,980.28
2016-12-06T11:03:47.800Z,980.28
2016-12-06T11:04:47.800Z,980.26
2016-12-06T11:05:47.796Z,980.3
2016-12-06T11:06:47.792Z,980.28
2016-12-06T11:07:47.788Z,980.29
2016-12-06T11:08:47.784Z,980.31
2016-12-06T11:09:47.784Z,980.28
2016-12-06T11:10:47.780Z,980.32
2016-12-06T11:11:47.776Z,980.31
2016-12-06T11:12:47.772Z,980.29
2016-12-06T11:13:47.772Z,980.31
2016-12-06T11:14:47.768Z,980.3
2016-12-06T11:15:47.765Z,980.29
2016-12-06T11:16:47.760Z,980.32
2016-12-06T11:17:47.756Z,980.35
2016-12-06T11:18:47.752Z,980.31
2016-12-06T11:19:47.752Z,980.38
2016-12-06T11:20:47.749Z,980.38
2016-12-06T11:21:47.745Z,980.36
2016-12-06T11:22:47.741Z,980.39
2016-12-06T11:23:47.737Z,980.4
2016-12-06T11:24:47.737Z,980.4
2016-12-06T11:25:47.732Z,980.37
2016-12-06T11:26:47.729Z,980.35
2016-12-06T11:27:47.725Z,980.33
2016-12-06T11:28:47.725Z,980.33
2016-12-06T11:29:47.721Z,980.34
2016-12-06T11:30:47.717Z,980.36
2016-12-06T11:31:47.713Z,980.31
2016-12-06T11:32:47.709Z,980.34
2016-12-06T11:33:47.708Z,980.27
2016-12-06T11:34:47.705Z,980.28
2016-12-06T11:35:47.701Z,980.26
2016-12-06T11:36:47.697Z,980.25
2016-12-06T11:37:47.693Z,980.27
2016-12-06T11:38:47.693Z,980.23
2016-12-06T11:39:47.689Z,980.23
2016-12-06T11:40:47.685Z,980.26
2016-12-06T11:41:47.681Z,980.23
2016-12-06T11:42:47.681Z,980.23
2016-12-06T11:43:47.677Z,980.24
2016-12-06T11:44:47.674Z,980.23
2016-12-06T11:45:47.669Z,980.22
2016-12-06T11:46:47.670Z,980.18
2016-12-06T11:47:47.665Z,980.15
2016-12-06T11:48:47.662Z,980.13
2016-12-06T11:49:47.658Z,980.11
2016-12-06T11:50:47.654Z,980.1
2016-12-06T11:51:47.649Z,980.11
2016-12-06T11:52:47.650Z,980.09
2016-12-06T11:53:47.646Z,980.13
2016-12-06T11:54:47.642Z,980.1
2016-12-06T11:55:47.637Z,980.11
2016-12-06T11:56:47.638Z,980.1
2016-12-06T11:57:47.634Z,980.12
2016-12-06T11:58:47.630Z,980.12
2016-12-06T11:59:47.626Z,980.17
2016-12-06T12:00:47.626Z,980.15
2016-12-06T12:01:47.623Z,980.16
2016-12-06T12:02:47.618Z,980.15
2016-12-06T12:03:47.614Z,980.16
2016-12-06T12:04:47.614Z,980.15
2016-12-06T12:05:47.610Z,980.18
2016-12-06T12:06:47.606Z,980.17
2016-12-06T12:07:47.602Z,980.18
2016-12-06T12:08:47.602Z,980.19
2016-12-06T12:09:47.598Z,980.17
2016-12-06T12:10:47.594Z,980.18
2016-12-06T12:11:47.590Z,980.14
2016-12-06T12:12:47.590Z,980.12
2016-12-06T12:13:47.587Z,980.11
2016-12-06T12:14:47.582Z,980.1
2016-12-06T12:15:47.578Z,980.1
2016-12-06T12:16:47.578Z,980.1
2016-12-06T12:17:47.574Z,980.11
2016-12-06T12:18:47.570Z,980.06
2016-12-06T12:19:47.566Z,980.06
2016-12-06T12:20:47.567Z,980.05
2016-12-06T12:21:47.563Z,980.04
2016-12-06T12:22:47.558Z,980.01
2016-12-06T12:23:47.559Z,979.96
2016-12-06T12:24:47.555Z,979.99
2016-12-06T12:25:47.551Z,979.96
2016-12-06T12:26:47.551Z,979.98
2016-12-06T12:27:47.547Z,979.96
2016-12-06T12:28:47.543Z,979.98
2016-12-06T12:29:47.539Z,979.97
2016-12-06T12:30:47.539Z,980
2016-12-06T12:31:47.535Z,979.95